sensor_id;sensor_type;location;lat;lon;timestamp;P1;durP1;ratioP1;P2;durP2;ratioP2
53052;SDS011;38934;52.690;6.184;2023-03-13T00:01:47;32.42;;;5.93;;
53052;SDS011;38934;52.690;6.184;2023-03-13T00:04:14;21.73;;;5.25;;
53052;SDS011;38934;52.690;6.184;2023-03-13T00:06:39;25.10;;;5.65;;
53052;SDS011;38934;52.690;6.184;2023-03-13T00:09:07;24.98;;;5.43;;
53052;SDS011;38934;52.690;6.184;2023-03-13T00:11:35;22.67;;;5.95;;
53052;SDS011;38934;52.690;6.184;2023-03-13T00:14:01;22.52;;;5.13;;
53052;SDS011;38934;52.690;6.184;2023-03-13T00:16:29;22.42;;;5.32;;
53052;SDS011;38934;52.690;6.184;2023-03-13T00:18:55;26.17;;;5.05;;
53052;SDS011;38934;52.690;6.184;2023-03-13T00:21:23;19.25;;;5.15;;
53052;SDS011;38934;52.690;6.184;2023-03-13T00:23:50;23.75;;;5.78;;
53052;SDS011;38934;52.690;6.184;2023-03-13T00:26:17;21.63;;;4.93;;
53052;SDS011;38934;52.690;6.184;2023-03-13T00:28:45;18.60;;;4.70;;
53052;SDS011;38934;52.690;6.184;2023-03-13T00:31:12;16.98;;;4.80;;
53052;SDS011;38934;52.690;6.184;2023-03-13T00:33:45;23.52;;;5.95;;
53052;SDS011;38934;52.690;6.184;2023-03-13T00:36:13;19.15;;;4.90;;
53052;SDS011;38934;52.690;6.184;2023-03-13T00:38:43;19.73;;;4.68;;
53052;SDS011;38934;52.690;6.184;2023-03-13T00:41:10;20.33;;;4.55;;
53052;SDS011;38934;52.690;6.184;2023-03-13T00:43:38;19.85;;;5.13;;
53052;SDS011;38934;52.690;6.184;2023-03-13T00:46:05;22.38;;;4.90;;
53052;SDS011;38934;52.690;6.184;2023-03-13T00:48:31;19.42;;;5.20;;
53052;SDS011;38934;52.690;6.184;2023-03-13T00:50:57;20.75;;;5.18;;
53052;SDS011;38934;52.690;6.184;2023-03-13T00:53:23;20.13;;;5.40;;
53052;SDS011;38934;52.690;6.184;2023-03-13T00:55:52;19.95;;;5.15;;
53052;SDS011;38934;52.690;6.184;2023-03-13T00:58:30;20.35;;;5.25;;
53052;SDS011;38934;52.690;6.184;2023-03-13T01:01:05;19.45;;;5.40;;
53052;SDS011;38934;52.690;6.184;2023-03-13T01:03:39;20.67;;;5.28;;
53052;SDS011;38934;52.690;6.184;2023-03-13T01:06:06;17.63;;;4.80;;
53052;SDS011;38934;52.690;6.184;2023-03-13T01:08:35;20.45;;;4.97;;
53052;SDS011;38934;52.690;6.184;2023-03-13T01:11:01;17.25;;;4.93;;
53052;SDS011;38934;52.690;6.184;2023-03-13T01:13:30;21.08;;;5.18;;
53052;SDS011;38934;52.690;6.184;2023-03-13T01:16:06;26.15;;;6.28;;
53052;SDS011;38934;52.690;6.184;2023-03-13T01:18:34;17.08;;;5.35;;
53052;SDS011;38934;52.690;6.184;2023-03-13T01:21:00;21.33;;;5.13;;
53052;SDS011;38934;52.690;6.184;2023-03-13T01:23:27;18.67;;;6.15;;
53052;SDS011;38934;52.690;6.184;2023-03-13T01:25:53;16.10;;;5.18;;
53052;SDS011;38934;52.690;6.184;2023-03-13T01:28:19;21.67;;;5.05;;
53052;SDS011;38934;52.690;6.184;2023-03-13T01:30:45;24.85;;;5.85;;
53052;SDS011;38934;52.690;6.184;2023-03-13T01:33:11;24.63;;;5.40;;
53052;SDS011;38934;52.690;6.184;2023-03-13T01:35:37;19.50;;;5.32;;
53052;SDS011;38934;52.690;6.184;2023-03-13T01:38:02;15.65;;;4.95;;
53052;SDS011;38934;52.690;6.184;2023-03-13T01:40:28;21.58;;;5.18;;
53052;SDS011;38934;52.690;6.184;2023-03-13T01:42:54;22.63;;;5.25;;
53052;SDS011;38934;52.690;6.184;2023-03-13T01:48:32;17.45;;;5.05;;
53052;SDS011;38934;52.690;6.184;2023-03-13T01:51:02;20.15;;;4.97;;
53052;SDS011;38934;52.690;6.184;2023-03-13T01:53:32;20.42;;;5.65;;
53052;SDS011;38934;52.690;6.184;2023-03-13T01:56:00;25.77;;;5.63;;
53052;SDS011;38934;52.690;6.184;2023-03-13T01:58:30;22.73;;;5.78;;
53052;SDS011;38934;52.690;6.184;2023-03-13T02:00:56;20.45;;;6.20;;
53052;SDS011;38934;52.690;6.184;2023-03-13T02:03:22;21.48;;;6.25;;
53052;SDS011;38934;52.690;6.184;2023-03-13T02:05:50;22.35;;;6.20;;
53052;SDS011;38934;52.690;6.184;2023-03-13T02:08:23;17.23;;;5.03;;
53052;SDS011;38934;52.690;6.184;2023-03-13T02:10:57;22.88;;;6.30;;
53052;SDS011;38934;52.690;6.184;2023-03-13T02:13:45;17.00;;;5.82;;
53052;SDS011;38934;52.690;6.184;2023-03-13T02:16:12;21.77;;;5.97;;
53052;SDS011;38934;52.690;6.184;2023-03-13T02:18:38;17.80;;;5.80;;
53052;SDS011;38934;52.690;6.184;2023-03-13T02:21:07;17.88;;;6.20;;
53052;SDS011;38934;52.690;6.184;2023-03-13T02:23:49;19.60;;;5.38;;
53052;SDS011;38934;52.690;6.184;2023-03-13T02:26:24;17.65;;;6.28;;
53052;SDS011;38934;52.690;6.184;2023-03-13T02:28:50;17.42;;;6.22;;
53052;SDS011;38934;52.690;6.184;2023-03-13T02:31:16;13.30;;;6.85;;
53052;SDS011;38934;52.690;6.184;2023-03-13T02:33:42;17.88;;;5.97;;
53052;SDS011;38934;52.690;6.184;2023-03-13T02:36:08;14.18;;;5.88;;
53052;SDS011;38934;52.690;6.184;2023-03-13T02:38:41;15.10;;;5.47;;
53052;SDS011;38934;52.690;6.184;2023-03-13T02:41:12;11.70;;;5.28;;
53052;SDS011;38934;52.690;6.184;2023-03-13T02:43:39;12.25;;;5.55;;
53052;SDS011;38934;52.690;6.184;2023-03-13T02:48:33;14.05;;;5.18;;
53052;SDS011;38934;52.690;6.184;2023-03-13T02:51:02;9.23;;;5.18;;
53052;SDS011;38934;52.690;6.184;2023-03-13T02:53:33;12.35;;;5.30;;
53052;SDS011;38934;52.690;6.184;2023-03-13T02:56:00;13.07;;;5.10;;
53052;SDS011;38934;52.690;6.184;2023-03-13T02:58:26;14.85;;;5.22;;
53052;SDS011;38934;52.690;6.184;2023-03-13T03:00:51;12.63;;;5.30;;
53052;SDS011;38934;52.690;6.184;2023-03-13T03:03:17;10.75;;;5.18;;
53052;SDS011;38934;52.690;6.184;2023-03-13T03:05:43;11.25;;;5.35;;
53052;SDS011;38934;52.690;6.184;2023-03-13T03:08:08;10.45;;;5.00;;
53052;SDS011;38934;52.690;6.184;2023-03-13T03:10:35;9.65;;;4.47;;
53052;SDS011;38934;52.690;6.184;2023-03-13T03:13:01;9.35;;;4.60;;
53052;SDS011;38934;52.690;6.184;2023-03-13T03:15:27;9.27;;;4.97;;
53052;SDS011;38934;52.690;6.184;2023-03-13T03:17:53;9.23;;;4.90;;
53052;SDS011;38934;52.690;6.184;2023-03-13T03:20:18;8.48;;;4.90;;
53052;SDS011;38934;52.690;6.184;2023-03-13T03:22:44;8.57;;;4.80;;
53052;SDS011;38934;52.690;6.184;2023-03-13T03:25:09;8.20;;;4.82;;
53052;SDS011;38934;52.690;6.184;2023-03-13T03:27:35;9.77;;;5.15;;
53052;SDS011;38934;52.690;6.184;2023-03-13T03:30:02;8.85;;;4.95;;
53052;SDS011;38934;52.690;6.184;2023-03-13T03:32:29;9.88;;;5.30;;
53052;SDS011;38934;52.690;6.184;2023-03-13T03:34:55;7.30;;;4.93;;
53052;SDS011;38934;52.690;6.184;2023-03-13T03:37:20;9.85;;;5.50;;
53052;SDS011;38934;52.690;6.184;2023-03-13T03:39:46;8.82;;;5.40;;
53052;SDS011;38934;52.690;6.184;2023-03-13T03:42:11;11.38;;;6.05;;
53052;SDS011;38934;52.690;6.184;2023-03-13T03:44:37;10.07;;;5.90;;
53052;SDS011;38934;52.690;6.184;2023-03-13T03:47:03;10.02;;;5.50;;
53052;SDS011;38934;52.690;6.184;2023-03-13T03:49:28;13.43;;;6.03;;
53052;SDS011;38934;52.690;6.184;2023-03-13T03:51:54;9.02;;;5.60;;
53052;SDS011;38934;52.690;6.184;2023-03-13T03:54:19;13.60;;;6.05;;
53052;SDS011;38934;52.690;6.184;2023-03-13T03:56:45;10.52;;;6.15;;
53052;SDS011;38934;52.690;6.184;2023-03-13T03:59:10;13.20;;;6.40;;
53052;SDS011;38934;52.690;6.184;2023-03-13T04:01:36;11.45;;;6.78;;
53052;SDS011;38934;52.690;6.184;2023-03-13T04:04:02;11.07;;;6.30;;
53052;SDS011;38934;52.690;6.184;2023-03-13T04:06:27;10.65;;;6.85;;
53052;SDS011;38934;52.690;6.184;2023-03-13T04:08:53;11.07;;;6.82;;
53052;SDS011;38934;52.690;6.184;2023-03-13T04:11:19;11.98;;;6.95;;
53052;SDS011;38934;52.690;6.184;2023-03-13T04:13:45;12.43;;;7.78;;
53052;SDS011;38934;52.690;6.184;2023-03-13T04:16:10;14.32;;;8.00;;
53052;SDS011;38934;52.690;6.184;2023-03-13T04:18:36;13.60;;;8.73;;
53052;SDS011;38934;52.690;6.184;2023-03-13T04:21:02;17.77;;;9.43;;
53052;SDS011;38934;52.690;6.184;2023-03-13T04:23:29;18.00;;;10.02;;
53052;SDS011;38934;52.690;6.184;2023-03-13T04:25:54;19.02;;;10.40;;
53052;SDS011;38934;52.690;6.184;2023-03-13T04:28:20;18.27;;;10.60;;
53052;SDS011;38934;52.690;6.184;2023-03-13T04:30:45;21.95;;;11.10;;
53052;SDS011;38934;52.690;6.184;2023-03-13T04:33:11;23.45;;;12.07;;
53052;SDS011;38934;52.690;6.184;2023-03-13T04:35:36;21.58;;;11.38;;
53052;SDS011;38934;52.690;6.184;2023-03-13T04:38:02;21.45;;;11.95;;
53052;SDS011;38934;52.690;6.184;2023-03-13T04:40:28;23.50;;;12.63;;
53052;SDS011;38934;52.690;6.184;2023-03-13T04:42:53;23.23;;;12.93;;
53052;SDS011;38934;52.690;6.184;2023-03-13T04:45:19;21.05;;;12.27;;
53052;SDS011;38934;52.690;6.184;2023-03-13T04:47:45;20.40;;;12.32;;
53052;SDS011;38934;52.690;6.184;2023-03-13T04:50:11;22.05;;;12.70;;
53052;SDS011;38934;52.690;6.184;2023-03-13T04:52:36;21.35;;;11.43;;
53052;SDS011;38934;52.690;6.184;2023-03-13T04:55:02;21.17;;;12.07;;
53052;SDS011;38934;52.690;6.184;2023-03-13T04:57:28;20.20;;;11.27;;
53052;SDS011;38934;52.690;6.184;2023-03-13T04:59:54;22.52;;;12.10;;
53052;SDS011;38934;52.690;6.184;2023-03-13T05:02:19;23.95;;;11.70;;
53052;SDS011;38934;52.690;6.184;2023-03-13T05:04:45;22.50;;;12.43;;
53052;SDS011;38934;52.690;6.184;2023-03-13T05:07:10;20.40;;;10.88;;
53052;SDS011;38934;52.690;6.184;2023-03-13T05:09:36;19.10;;;10.45;;
53052;SDS011;38934;52.690;6.184;2023-03-13T05:12:02;15.50;;;9.45;;
53052;SDS011;38934;52.690;6.184;2023-03-13T05:14:27;17.55;;;10.57;;
53052;SDS011;38934;52.690;6.184;2023-03-13T05:16:53;16.38;;;9.40;;
53052;SDS011;38934;52.690;6.184;2023-03-13T05:19:18;19.45;;;9.68;;
53052;SDS011;38934;52.690;6.184;2023-03-13T05:21:44;19.90;;;9.23;;
53052;SDS011;38934;52.690;6.184;2023-03-13T05:24:10;15.40;;;9.82;;
53052;SDS011;38934;52.690;6.184;2023-03-13T05:26:35;19.08;;;9.57;;
53052;SDS011;38934;52.690;6.184;2023-03-13T05:29:01;18.73;;;9.38;;
53052;SDS011;38934;52.690;6.184;2023-03-13T05:31:26;15.27;;;9.00;;
53052;SDS011;38934;52.690;6.184;2023-03-13T05:33:52;13.88;;;8.65;;
53052;SDS011;38934;52.690;6.184;2023-03-13T05:36:18;16.90;;;9.07;;
53052;SDS011;38934;52.690;6.184;2023-03-13T05:38:44;15.00;;;8.48;;
53052;SDS011;38934;52.690;6.184;2023-03-13T05:41:09;15.43;;;8.63;;
53052;SDS011;38934;52.690;6.184;2023-03-13T05:43:35;15.40;;;8.75;;
53052;SDS011;38934;52.690;6.184;2023-03-13T05:46:00;14.70;;;8.52;;
53052;SDS011;38934;52.690;6.184;2023-03-13T05:48:26;13.93;;;8.20;;
53052;SDS011;38934;52.690;6.184;2023-03-13T05:50:52;15.63;;;8.57;;
53052;SDS011;38934;52.690;6.184;2023-03-13T05:53:17;14.73;;;7.82;;
53052;SDS011;38934;52.690;6.184;2023-03-13T05:55:43;13.63;;;8.10;;
53052;SDS011;38934;52.690;6.184;2023-03-13T05:58:08;16.20;;;8.45;;
53052;SDS011;38934;52.690;6.184;2023-03-13T06:00:34;12.82;;;7.72;;
53052;SDS011;38934;52.690;6.184;2023-03-13T06:03:00;13.68;;;8.35;;
53052;SDS011;38934;52.690;6.184;2023-03-13T06:05:25;14.10;;;8.52;;
53052;SDS011;38934;52.690;6.184;2023-03-13T06:07:51;14.60;;;8.68;;
53052;SDS011;38934;52.690;6.184;2023-03-13T06:10:16;14.32;;;7.93;;
53052;SDS011;38934;52.690;6.184;2023-03-13T06:12:42;16.30;;;8.43;;
53052;SDS011;38934;52.690;6.184;2023-03-13T06:15:08;13.65;;;7.97;;
53052;SDS011;38934;52.690;6.184;2023-03-13T06:17:34;14.65;;;8.07;;
53052;SDS011;38934;52.690;6.184;2023-03-13T06:20:00;14.82;;;7.63;;
53052;SDS011;38934;52.690;6.184;2023-03-13T06:22:28;14.57;;;7.35;;
53052;SDS011;38934;52.690;6.184;2023-03-13T06:24:54;15.88;;;7.10;;
53052;SDS011;38934;52.690;6.184;2023-03-13T06:27:21;15.13;;;7.45;;
53052;SDS011;38934;52.690;6.184;2023-03-13T06:29:46;13.93;;;7.15;;
53052;SDS011;38934;52.690;6.184;2023-03-13T06:32:12;15.30;;;6.85;;
53052;SDS011;38934;52.690;6.184;2023-03-13T06:34:37;12.85;;;6.45;;
53052;SDS011;38934;52.690;6.184;2023-03-13T06:37:03;15.48;;;6.65;;
53052;SDS011;38934;52.690;6.184;2023-03-13T06:39:29;12.23;;;6.00;;
53052;SDS011;38934;52.690;6.184;2023-03-13T06:41:54;13.98;;;6.28;;
53052;SDS011;38934;52.690;6.184;2023-03-13T06:44:20;12.98;;;5.80;;
53052;SDS011;38934;52.690;6.184;2023-03-13T06:46:46;13.57;;;6.47;;
53052;SDS011;38934;52.690;6.184;2023-03-13T06:49:11;11.80;;;6.20;;
53052;SDS011;38934;52.690;6.184;2023-03-13T06:51:37;15.02;;;5.78;;
53052;SDS011;38934;52.690;6.184;2023-03-13T06:54:02;14.73;;;5.90;;
53052;SDS011;38934;52.690;6.184;2023-03-13T06:56:28;15.13;;;6.05;;
53052;SDS011;38934;52.690;6.184;2023-03-13T06:58:54;14.55;;;5.57;;
53052;SDS011;38934;52.690;6.184;2023-03-13T07:01:19;12.55;;;5.68;;
53052;SDS011;38934;52.690;6.184;2023-03-13T07:03:46;9.93;;;5.35;;
53052;SDS011;38934;52.690;6.184;2023-03-13T07:06:12;11.88;;;5.18;;
53052;SDS011;38934;52.690;6.184;2023-03-13T07:08:39;13.57;;;5.00;;
53052;SDS011;38934;52.690;6.184;2023-03-13T07:11:06;11.15;;;5.53;;
53052;SDS011;38934;52.690;6.184;2023-03-13T07:13:33;13.02;;;4.95;;
53052;SDS011;38934;52.690;6.184;2023-03-13T07:16:02;11.75;;;5.20;;
53052;SDS011;38934;52.690;6.184;2023-03-13T07:18:29;14.60;;;4.80;;
53052;SDS011;38934;52.690;6.184;2023-03-13T07:20:56;9.65;;;4.82;;
53052;SDS011;38934;52.690;6.184;2023-03-13T07:23:23;9.57;;;4.63;;
53052;SDS011;38934;52.690;6.184;2023-03-13T07:25:54;9.73;;;4.55;;
53052;SDS011;38934;52.690;6.184;2023-03-13T07:30:49;11.35;;;5.05;;
53052;SDS011;38934;52.690;6.184;2023-03-13T07:33:15;11.95;;;4.82;;
53052;SDS011;38934;52.690;6.184;2023-03-13T07:35:46;12.93;;;4.75;;
53052;SDS011;38934;52.690;6.184;2023-03-13T07:38:12;9.90;;;5.05;;
53052;SDS011;38934;52.690;6.184;2023-03-13T07:40:38;12.00;;;4.78;;
53052;SDS011;38934;52.690;6.184;2023-03-13T07:43:04;11.45;;;4.88;;
53052;SDS011;38934;52.690;6.184;2023-03-13T07:45:30;7.38;;;4.20;;
53052;SDS011;38934;52.690;6.184;2023-03-13T07:47:56;9.10;;;4.32;;
53052;SDS011;38934;52.690;6.184;2023-03-13T07:50:21;9.35;;;4.65;;
53052;SDS011;38934;52.690;6.184;2023-03-13T07:52:47;10.07;;;4.53;;
53052;SDS011;38934;52.690;6.184;2023-03-13T07:55:12;10.63;;;5.07;;
53052;SDS011;38934;52.690;6.184;2023-03-13T07:57:38;10.10;;;4.18;;
53052;SDS011;38934;52.690;6.184;2023-03-13T08:00:04;8.45;;;4.55;;
53052;SDS011;38934;52.690;6.184;2023-03-13T08:02:34;8.80;;;4.60;;
53052;SDS011;38934;52.690;6.184;2023-03-13T08:04:59;8.10;;;4.43;;
53052;SDS011;38934;52.690;6.184;2023-03-13T08:07:25;9.57;;;4.38;;
53052;SDS011;38934;52.690;6.184;2023-03-13T08:09:50;6.78;;;4.22;;
53052;SDS011;38934;52.690;6.184;2023-03-13T08:12:16;6.35;;;4.32;;
53052;SDS011;38934;52.690;6.184;2023-03-13T08:14:42;10.15;;;4.30;;
53052;SDS011;38934;52.690;6.184;2023-03-13T08:17:07;8.82;;;4.32;;
53052;SDS011;38934;52.690;6.184;2023-03-13T08:19:33;9.20;;;5.28;;
53052;SDS011;38934;52.690;6.184;2023-03-13T08:21:58;7.97;;;4.20;;
53052;SDS011;38934;52.690;6.184;2023-03-13T08:24:24;8.60;;;4.85;;
53052;SDS011;38934;52.690;6.184;2023-03-13T08:26:49;8.82;;;4.32;;
53052;SDS011;38934;52.690;6.184;2023-03-13T08:29:15;7.45;;;4.13;;
53052;SDS011;38934;52.690;6.184;2023-03-13T08:31:42;9.35;;;4.60;;
53052;SDS011;38934;52.690;6.184;2023-03-13T08:34:12;9.85;;;4.45;;
53052;SDS011;38934;52.690;6.184;2023-03-13T08:36:38;10.80;;;4.40;;
53052;SDS011;38934;52.690;6.184;2023-03-13T08:39:06;7.70;;;4.38;;
53052;SDS011;38934;52.690;6.184;2023-03-13T08:41:36;7.65;;;4.10;;
53052;SDS011;38934;52.690;6.184;2023-03-13T08:44:04;6.30;;;3.92;;
53052;SDS011;38934;52.690;6.184;2023-03-13T08:46:31;9.95;;;4.53;;
53052;SDS011;38934;52.690;6.184;2023-03-13T08:48:58;6.72;;;3.88;;
53052;SDS011;38934;52.690;6.184;2023-03-13T08:51:25;6.38;;;3.83;;
53052;SDS011;38934;52.690;6.184;2023-03-13T08:53:53;5.85;;;3.90;;
53052;SDS011;38934;52.690;6.184;2023-03-13T08:56:20;5.82;;;3.90;;
53052;SDS011;38934;52.690;6.184;2023-03-13T08:58:48;6.78;;;3.53;;
53052;SDS011;38934;52.690;6.184;2023-03-13T09:01:15;7.30;;;3.50;;
53052;SDS011;38934;52.690;6.184;2023-03-13T09:03:40;7.18;;;3.70;;
53052;SDS011;38934;52.690;6.184;2023-03-13T09:06:07;5.55;;;3.67;;
53052;SDS011;38934;52.690;6.184;2023-03-13T09:08:33;6.22;;;3.70;;
53052;SDS011;38934;52.690;6.184;2023-03-13T09:11:03;7.53;;;3.85;;
53052;SDS011;38934;52.690;6.184;2023-03-13T09:13:35;8.27;;;3.88;;
53052;SDS011;38934;52.690;6.184;2023-03-13T09:16:07;8.15;;;4.25;;
53052;SDS011;38934;52.690;6.184;2023-03-13T09:18:35;8.13;;;4.00;;
53052;SDS011;38934;52.690;6.184;2023-03-13T09:21:01;7.05;;;4.03;;
53052;SDS011;38934;52.690;6.184;2023-03-13T09:23:27;7.93;;;3.70;;
53052;SDS011;38934;52.690;6.184;2023-03-13T09:25:54;4.72;;;3.00;;
53052;SDS011;38934;52.690;6.184;2023-03-13T09:28:21;8.02;;;3.40;;
53052;SDS011;38934;52.690;6.184;2023-03-13T09:30:48;6.57;;;3.20;;
53052;SDS011;38934;52.690;6.184;2023-03-13T09:33:14;7.53;;;3.17;;
53052;SDS011;38934;52.690;6.184;2023-03-13T09:35:40;5.88;;;2.80;;
53052;SDS011;38934;52.690;6.184;2023-03-13T09:38:06;5.97;;;2.70;;
53052;SDS011;38934;52.690;6.184;2023-03-13T09:40:43;8.35;;;2.90;;
53052;SDS011;38934;52.690;6.184;2023-03-13T09:46:05;4.93;;;2.60;;
53052;SDS011;38934;52.690;6.184;2023-03-13T09:48:38;7.28;;;2.80;;
53052;SDS011;38934;52.690;6.184;2023-03-13T09:51:18;6.10;;;2.88;;
53052;SDS011;38934;52.690;6.184;2023-03-13T09:53:59;6.47;;;2.50;;
53052;SDS011;38934;52.690;6.184;2023-03-13T09:56:38;7.10;;;3.10;;
53052;SDS011;38934;52.690;6.184;2023-03-13T10:01:48;6.07;;;3.00;;
53052;SDS011;38934;52.690;6.184;2023-03-13T10:06:43;6.97;;;2.90;;
53052;SDS011;38934;52.690;6.184;2023-03-13T10:09:22;4.53;;;2.70;;
53052;SDS011;38934;52.690;6.184;2023-03-13T10:12:11;8.30;;;2.70;;
53052;SDS011;38934;52.690;6.184;2023-03-13T10:17:33;8.90;;;2.95;;
53052;SDS011;38934;52.690;6.184;2023-03-13T10:20:22;6.35;;;2.50;;
53052;SDS011;38934;52.690;6.184;2023-03-13T10:22:50;10.82;;;2.70;;
53052;SDS011;38934;52.690;6.184;2023-03-13T10:25:32;10.20;;;2.88;;
53052;SDS011;38934;52.690;6.184;2023-03-13T10:27:59;10.18;;;2.47;;
53052;SDS011;38934;52.690;6.184;2023-03-13T10:30:30;8.13;;;2.50;;
53052;SDS011;38934;52.690;6.184;2023-03-13T10:35:38;5.65;;;2.42;;
53052;SDS011;38934;52.690;6.184;2023-03-13T10:38:13;9.38;;;3.05;;
53052;SDS011;38934;52.690;6.184;2023-03-13T10:40:42;11.45;;;2.90;;
53052;SDS011;38934;52.690;6.184;2023-03-13T10:43:19;7.97;;;2.72;;
53052;SDS011;38934;52.690;6.184;2023-03-13T10:45:45;7.65;;;2.70;;
53052;SDS011;38934;52.690;6.184;2023-03-13T10:48:13;8.07;;;2.72;;
53052;SDS011;38934;52.690;6.184;2023-03-13T10:50:43;7.55;;;2.85;;
53052;SDS011;38934;52.690;6.184;2023-03-13T10:55:56;4.60;;;2.40;;
53052;SDS011;38934;52.690;6.184;2023-03-13T10:58:29;6.72;;;2.42;;
53052;SDS011;38934;52.690;6.184;2023-03-13T11:03:48;5.43;;;2.10;;
53052;SDS011;38934;52.690;6.184;2023-03-13T11:06:24;3.38;;;2.05;;
53052;SDS011;38934;52.690;6.184;2023-03-13T11:11:26;6.18;;;2.22;;
53052;SDS011;38934;52.690;6.184;2023-03-13T11:14:06;6.18;;;2.20;;
53052;SDS011;38934;52.690;6.184;2023-03-13T11:16:33;6.60;;;2.00;;
53052;SDS011;38934;52.690;6.184;2023-03-13T11:24:21;4.70;;;1.83;;
53052;SDS011;38934;52.690;6.184;2023-03-13T11:29:34;5.88;;;1.98;;
53052;SDS011;38934;52.690;6.184;2023-03-13T11:32:07;4.53;;;2.08;;
53052;SDS011;38934;52.690;6.184;2023-03-13T11:34:48;5.88;;;1.80;;
53052;SDS011;38934;52.690;6.184;2023-03-13T11:37:18;5.72;;;2.33;;
53052;SDS011;38934;52.690;6.184;2023-03-13T11:40:00;5.38;;;2.00;;
53052;SDS011;38934;52.690;6.184;2023-03-13T11:45:35;3.83;;;1.80;;
53052;SDS011;38934;52.690;6.184;2023-03-13T11:48:19;6.55;;;1.95;;
53052;SDS011;38934;52.690;6.184;2023-03-13T11:53:57;4.57;;;1.70;;
53052;SDS011;38934;52.690;6.184;2023-03-13T11:56:48;7.60;;;2.10;;
53052;SDS011;38934;52.690;6.184;2023-03-13T12:02:11;6.15;;;1.92;;
53052;SDS011;38934;52.690;6.184;2023-03-13T12:04:59;6.38;;;1.88;;
53052;SDS011;38934;52.690;6.184;2023-03-13T12:07:34;6.47;;;2.25;;
53052;SDS011;38934;52.690;6.184;2023-03-13T12:15:25;6.68;;;1.70;;
53052;SDS011;38934;52.690;6.184;2023-03-13T12:20:55;6.30;;;2.20;;
53052;SDS011;38934;52.690;6.184;2023-03-13T12:26:07;5.78;;;1.80;;
53052;SDS011;38934;52.690;6.184;2023-03-13T12:31:24;6.25;;;2.08;;
53052;SDS011;38934;52.690;6.184;2023-03-13T12:33:52;4.70;;;1.77;;
53052;SDS011;38934;52.690;6.184;2023-03-13T12:36:40;6.45;;;2.08;;
53052;SDS011;38934;52.690;6.184;2023-03-13T12:39:27;6.68;;;2.05;;
53052;SDS011;38934;52.690;6.184;2023-03-13T12:42:06;7.22;;;2.20;;
53052;SDS011;38934;52.690;6.184;2023-03-13T12:44:51;7.38;;;2.00;;
53052;SDS011;38934;52.690;6.184;2023-03-13T12:47:22;6.93;;;2.10;;
53052;SDS011;38934;52.690;6.184;2023-03-13T12:53:59;7.97;;;2.38;;
53052;SDS011;38934;52.690;6.184;2023-03-13T12:56:14;8.68;;;2.20;;
53052;SDS011;38934;52.690;6.184;2023-03-13T12:59:08;9.38;;;2.80;;
53052;SDS011;38934;52.690;6.184;2023-03-13T13:01:55;13.40;;;2.20;;
53052;SDS011;38934;52.690;6.184;2023-03-13T13:04:23;9.63;;;2.70;;
53052;SDS011;38934;52.690;6.184;2023-03-13T13:09:22;6.25;;;2.08;;
53052;SDS011;38934;52.690;6.184;2023-03-13T13:12:18;7.03;;;2.00;;
53052;SDS011;38934;52.690;6.184;2023-03-13T13:17:15;6.38;;;2.20;;
53052;SDS011;38934;52.690;6.184;2023-03-13T13:19:44;8.40;;;2.38;;
53052;SDS011;38934;52.690;6.184;2023-03-13T13:32:52;12.70;;;3.53;;
53052;SDS011;38934;52.690;6.184;2023-03-13T13:37:51;18.85;;;7.47;;
53052;SDS011;38934;52.690;6.184;2023-03-13T13:40:22;23.35;;;8.35;;
53052;SDS011;38934;52.690;6.184;2023-03-13T13:42:59;15.88;;;6.10;;
53052;SDS011;38934;52.690;6.184;2023-03-13T13:45:32;13.43;;;4.55;;
53052;SDS011;38934;52.690;6.184;2023-03-13T14:01:50;11.50;;;3.42;;
53052;SDS011;38934;52.690;6.184;2023-03-13T14:07:16;13.23;;;3.35;;
53052;SDS011;38934;52.690;6.184;2023-03-13T14:13:31;15.27;;;3.05;;
53052;SDS011;38934;52.690;6.184;2023-03-13T14:15:46;16.27;;;3.45;;
53052;SDS011;38934;52.690;6.184;2023-03-13T14:18:26;13.88;;;2.88;;
53052;SDS011;38934;52.690;6.184;2023-03-13T14:20:54;10.07;;;3.05;;
53052;SDS011;38934;52.690;6.184;2023-03-13T14:23:28;21.15;;;3.25;;
53052;SDS011;38934;52.690;6.184;2023-03-13T14:25:56;8.43;;;2.90;;
53052;SDS011;38934;52.690;6.184;2023-03-13T14:28:23;11.13;;;3.00;;
53052;SDS011;38934;52.690;6.184;2023-03-13T14:30:53;14.30;;;3.08;;
53052;SDS011;38934;52.690;6.184;2023-03-13T14:33:21;11.25;;;3.33;;
53052;SDS011;38934;52.690;6.184;2023-03-13T14:35:48;16.85;;;3.17;;
53052;SDS011;38934;52.690;6.184;2023-03-13T14:38:24;13.98;;;3.65;;
53052;SDS011;38934;52.690;6.184;2023-03-13T14:40:51;11.43;;;3.00;;
53052;SDS011;38934;52.690;6.184;2023-03-13T14:43:28;15.90;;;3.53;;
53052;SDS011;38934;52.690;6.184;2023-03-13T14:45:56;13.50;;;3.63;;
53052;SDS011;38934;52.690;6.184;2023-03-13T14:48:26;15.45;;;3.00;;
53052;SDS011;38934;52.690;6.184;2023-03-13T14:51:02;13.52;;;3.10;;
53052;SDS011;38934;52.690;6.184;2023-03-13T14:53:33;12.90;;;3.13;;
53052;SDS011;38934;52.690;6.184;2023-03-13T14:58:39;14.23;;;3.15;;
53052;SDS011;38934;52.690;6.184;2023-03-13T15:03:46;13.27;;;3.22;;
53052;SDS011;38934;52.690;6.184;2023-03-13T15:08:38;15.80;;;3.53;;
53052;SDS011;38934;52.690;6.184;2023-03-13T15:11:16;17.38;;;3.15;;
53052;SDS011;38934;52.690;6.184;2023-03-13T15:13:49;15.77;;;3.63;;
53052;SDS011;38934;52.690;6.184;2023-03-13T15:16:16;17.60;;;4.28;;
53052;SDS011;38934;52.690;6.184;2023-03-13T15:18:44;16.13;;;4.28;;
53052;SDS011;38934;52.690;6.184;2023-03-13T15:23:41;16.48;;;3.50;;
53052;SDS011;38934;52.690;6.184;2023-03-13T15:26:11;12.77;;;3.13;;
53052;SDS011;38934;52.690;6.184;2023-03-13T15:28:37;13.65;;;3.40;;
53052;SDS011;38934;52.690;6.184;2023-03-13T15:31:02;16.13;;;3.30;;
53052;SDS011;38934;52.690;6.184;2023-03-13T15:33:28;13.48;;;3.47;;
53052;SDS011;38934;52.690;6.184;2023-03-13T15:35:54;16.25;;;3.47;;
53052;SDS011;38934;52.690;6.184;2023-03-13T15:38:22;18.20;;;4.60;;
53052;SDS011;38934;52.690;6.184;2023-03-13T15:40:49;15.50;;;3.50;;
53052;SDS011;38934;52.690;6.184;2023-03-13T15:43:15;12.98;;;3.65;;
53052;SDS011;38934;52.690;6.184;2023-03-13T15:45:43;15.98;;;4.20;;
53052;SDS011;38934;52.690;6.184;2023-03-13T15:48:23;13.23;;;3.17;;
53052;SDS011;38934;52.690;6.184;2023-03-13T15:50:53;15.98;;;4.07;;
53052;SDS011;38934;52.690;6.184;2023-03-13T15:53:26;14.05;;;3.47;;
53052;SDS011;38934;52.690;6.184;2023-03-13T15:55:54;19.30;;;3.63;;
53052;SDS011;38934;52.690;6.184;2023-03-13T15:58:21;14.38;;;3.20;;
53052;SDS011;38934;52.690;6.184;2023-03-13T16:00:47;17.13;;;4.57;;
53052;SDS011;38934;52.690;6.184;2023-03-13T16:03:26;18.30;;;4.10;;
53052;SDS011;38934;52.690;6.184;2023-03-13T16:05:53;17.83;;;3.80;;
53052;SDS011;38934;52.690;6.184;2023-03-13T16:08:21;18.50;;;4.10;;
53052;SDS011;38934;52.690;6.184;2023-03-13T16:10:51;18.25;;;4.00;;
53052;SDS011;38934;52.690;6.184;2023-03-13T16:13:17;18.65;;;4.15;;
53052;SDS011;38934;52.690;6.184;2023-03-13T16:15:44;19.15;;;4.65;;
53052;SDS011;38934;52.690;6.184;2023-03-13T16:18:19;16.98;;;3.85;;
53052;SDS011;38934;52.690;6.184;2023-03-13T16:20:46;16.90;;;3.80;;
53052;SDS011;38934;52.690;6.184;2023-03-13T16:23:13;17.80;;;4.20;;
53052;SDS011;38934;52.690;6.184;2023-03-13T16:25:40;16.88;;;4.20;;
53052;SDS011;38934;52.690;6.184;2023-03-13T16:28:09;20.48;;;5.68;;
53052;SDS011;38934;52.690;6.184;2023-03-13T16:30:36;14.27;;;3.88;;
53052;SDS011;38934;52.690;6.184;2023-03-13T16:33:05;14.77;;;3.95;;
53052;SDS011;38934;52.690;6.184;2023-03-13T16:35:31;15.85;;;4.53;;
53052;SDS011;38934;52.690;6.184;2023-03-13T16:37:57;15.60;;;4.30;;
53052;SDS011;38934;52.690;6.184;2023-03-13T16:40:24;17.92;;;5.00;;